Time;durP1;ratioP1;P1;durP2;ratioP2;P2;SDS_P1;SDS_P2;PMS_P1;PMS_P2;Temp;Humidity;BMP_temperature;BMP_pressure;BME280_temperature;BME280_humidity;BME280_pressure;Samples;Min_cycle;Max_cycle;Signal;HPM_P1;HPM_P2
2022/06/09 00:00:43;;;;;;;12.73;4.15;;;;;;;13.85;93.28;100144.59;6252946;23;20457;-88
2022/06/09 00:03:15;;;;;;;15.52;4.40;;;;;;;13.91;93.15;100165.69;6251455;22;20353;-87
2022/06/09 00:05:43;;;;;;;10.18;3.95;;;;;;;13.83;93.20;100152.66;6253718;23;20023;-89
2022/06/09 00:08:10;;;;;;;11.63;4.50;;;;;;;13.76;93.03;100148.34;6251992;23;20031;-89
2022/06/09 00:10:41;;;;;;;10.35;3.65;;;;;;;13.74;93.34;100159.06;6252670;23;20027;-87
2022/06/09 00:13:10;;;;;;;12.10;3.95;;;;;;;13.70;93.36;100162.28;6253000;22;20020;-88
2022/06/09 00:15:37;;;;;;;10.98;4.22;;;;;;;13.62;93.37;100165.84;6252284;23;20020;-88
2022/06/09 00:18:04;;;;;;;12.18;4.55;;;;;;;13.70;93.43;100183.31;6252991;23;20027;-87
2022/06/09 00:20:31;;;;;;;11.98;4.40;;;;;;;13.46;93.63;100156.34;6252638;23;20017;-88
2022/06/09 00:22:58;;;;;;;8.85;4.05;;;;;;;13.52;93.47;100168.75;6250905;22;20022;-89
2022/06/09 00:25:25;;;;;;;12.85;4.15;;;;;;;13.48;93.78;100164.88;6251704;23;20471;-88
2022/06/09 00:27:52;;;;;;;11.25;4.40;;;;;;;13.58;93.78;100196.94;6251988;23;20024;-88
2022/06/09 00:30:20;;;;;;;16.65;5.10;;;;;;;13.34;93.96;100157.84;6251677;23;20090;-88
2022/06/09 00:32:47;;;;;;;10.35;4.55;;;;;;;13.37;94.29;100177.69;6250928;22;20020;-88
2022/06/09 00:35:14;;;;;;;13.82;4.03;;;;;;;13.26;94.68;100163.19;6251598;23;20124;-88
2022/06/09 00:37:41;;;;;;;12.02;4.20;;;;;;;13.24;94.71;100158.13;6251863;23;20016;-88
2022/06/09 00:40:12;;;;;;;14.60;5.00;;;;;;;13.18;95.07;100164.16;6250765;23;20020;-88
2022/06/09 00:42:39;;;;;;;16.42;4.05;;;;;;;13.32;95.03;100188.75;6251794;23;20020;-88
2022/06/09 00:45:33;;;;;;;14.75;5.38;;;;;;;13.14;95.33;100175.16;6251890;22;20027;-87
2022/06/09 00:48:17;;;;;;;12.13;3.80;;;;;;;13.24;95.43;100194.91;6251180;23;20027;-88
2022/06/09 00:50:46;;;;;;;15.30;6.10;;;;;;;13.21;96.15;100207.63;6250924;23;20087;-87
2022/06/09 00:53:18;;;;;;;11.07;3.90;;;;;;;13.14;96.18;100202.25;6251802;22;20016;-87
2022/06/09 00:55:45;;;;;;;13.25;4.45;;;;;;;13.20;96.15;100201.56;6250440;23;20077;-88
2022/06/09 00:58:16;;;;;;;14.25;4.80;;;;;;;13.07;96.09;100192.66;6251390;23;20100;-87
2022/06/09 01:00:50;;;;;;;10.40;4.40;;;;;;;13.15;96.06;100205.69;6250491;23;20026;-88
2022/06/09 01:03:20;;;;;;;11.02;5.25;;;;;;;13.14;96.04;100202.25;6251687;22;20020;-87
2022/06/09 01:05:49;;;;;;;13.18;4.82;;;;;;;13.08;96.34;100204.78;6250504;23;20020;-87
2022/06/09 01:08:17;;;;;;;13.18;4.32;;;;;;;13.11;96.21;100212.31;6249916;23;20024;-87
2022/06/09 01:10:44;;;;;;;12.32;4.80;;;;;;;13.01;96.46;100196.00;6250888;23;20088;-88
2022/06/09 01:13:12;;;;;;;11.50;5.50;;;;;;;13.03;96.38;100202.72;6252320;22;20016;-88
2022/06/09 01:15:51;;;;;;;12.85;5.07;;;;;;;13.02;96.65;100200.25;6250047;23;20031;-87
2022/06/09 01:18:29;;;;;;;15.48;4.65;;;;;;;13.04;96.53;100211.41;6250503;23;20021;-86
2022/06/09 01:21:06;;;;;;;10.57;4.50;;;;;;;13.09;96.24;100224.81;6251295;23;20098;-86
2022/06/09 01:24:13;;;;;;;14.93;4.60;;;;;;;13.01;96.33;100217.03;6251081;22;20020;-87
2022/06/09 01:27:12;;;;;;;13.43;4.95;;;;;;;13.14;96.08;100236.41;6250668;23;20017;-88
2022/06/09 01:29:45;;;;;;;12.43;4.82;;;;;;;13.13;95.95;100224.25;6250025;23;20020;-87
2022/06/09 01:32:21;;;;;;;9.50;4.82;;;;;;;13.18;95.65;100221.94;6250295;23;20017;-87
2022/06/09 01:35:00;;;;;;;13.77;4.63;;;;;;;13.20;96.01;100240.16;6250516;22;20024;-87
2022/06/09 01:37:32;;;;;;;17.25;5.13;;;;;;;13.18;95.78;100229.00;6250952;23;20047;-88
2022/06/09 01:40:01;;;;;;;;;;;;;;;13.32;95.70;100240.47;6250564;23;20095;-87
2022/06/09 01:42:34;;;;;;;14.52;5.07;;;;;;;13.19;95.63;100212.25;6252602;23;19923;-87
2022/06/09 01:45:07;;;;;;;15.20;4.43;;;;;;;13.29;95.83;100236.41;6250378;22;20098;-87
2022/06/09 01:47:39;;;;;;;;;;;;;;;13.31;95.93;100247.53;6253177;23;20027;-87
2022/06/09 01:50:11;;;;;;;16.40;5.50;;;;;;;13.10;95.94;100222.00;6254502;23;19922;-87
2022/06/09 01:52:41;;;;;;;13.32;5.03;;;;;;;13.24;95.58;100241.38;6250127;23;20047;-87
2022/06/09 01:55:11;;;;;;;15.05;5.15;;;;;;;13.10;95.56;100223.81;6249336;22;20412;-87
2022/06/09 01:57:40;;;;;;;12.45;4.90;;;;;;;13.05;95.98;100231.41;6250752;23;20070;-87
2022/06/09 02:00:10;;;;;;;14.93;4.93;;;;;;;13.05;96.11;100242.75;6250805;23;20023;-87
2022/06/09 02:02:43;;;;;;;17.80;5.25;;;;;;;13.00;96.74;100239.03;6249284;23;20016;-87
2022/06/09 02:05:14;;;;;;;19.35;4.82;;;;;;;13.05;96.63;100255.06;6251375;22;20020;-88
2022/06/09 02:07:43;;;;;;;13.90;5.20;;;;;;;12.86;97.02;100238.84;6250971;23;20020;-87
2022/06/09 02:10:20;;;;;;;20.05;6.18;;;;;;;12.91;97.38;100252.25;6250313;23;20024;-88
2022/06/09 02:12:48;;;;;;;20.38;5.47;;;;;;;12.86;97.25;100238.84;6250089;22;20449;-87
2022/06/09 02:15:22;;;;;;;17.23;5.53;;;;;;;13.00;97.33;100262.66;6250931;23;20024;-87
2022/06/09 02:17:52;;;;;;;17.63;5.15;;;;;;;12.90;97.47;100247.97;6250973;23;20026;-88
2022/06/09 02:20:21;;;;;;;13.45;5.20;;;;;;;13.04;97.17;100266.56;6249860;23;20008;-88
2022/06/09 02:22:48;;;;;;;17.17;5.78;;;;;;;13.10;97.18;100278.97;6249777;22;20016;-88
2022/06/09 02:25:16;;;;;;;15.35;6.53;;;;;;;13.01;97.21;100254.59;6249787;23;20082;-88
2022/06/09 02:27:42;;;;;;;14.38;5.45;;;;;;;13.11;96.82;100259.59;6249443;23;20083;-88
2022/06/09 02:30:11;;;;;;;16.35;5.72;;;;;;;13.15;96.53;100269.56;6250088;23;20070;-88
2022/06/09 02:32:37;;;;;;;17.35;5.90;;;;;;;13.12;96.24;100258.59;6250184;23;20020;-88
2022/06/09 02:35:07;;;;;;;23.73;6.32;;;;;;;13.23;96.00;100277.34;6249640;22;20032;-88
2022/06/09 02:37:34;;;;;;;22.77;5.60;;;;;;;13.15;96.05;100263.50;6249582;23;20038;-87
2022/06/09 02:40:01;;;;;;;14.45;5.28;;;;;;;13.13;96.65;100254.97;6251310;23;20012;-88
2022/06/09 02:42:28;;;;;;;17.45;5.90;;;;;;;13.14;96.47;100261.84;6250630;23;20031;-87
2022/06/09 02:44:55;;;;;;;12.30;5.95;;;;;;;13.25;96.55;100285.88;6250736;22;20086;-87
2022/06/09 02:47:22;;;;;;;14.80;6.25;;;;;;;13.13;96.59;100265.47;6250772;23;20034;-87
2022/06/09 02:49:48;;;;;;;16.05;6.40;;;;;;;13.14;96.60;100264.47;6249981;23;20020;-87
2022/06/09 02:52:17;;;;;;;16.98;6.45;;;;;;;13.18;96.88;100271.03;6250942;23;20019;-87
2022/06/09 02:54:43;;;;;;;20.90;6.85;;;;;;;13.15;97.36;100276.63;6250520;22;20028;-87
2022/06/09 02:57:10;;;;;;;16.55;7.40;;;;;;;13.16;97.18;100270.41;6250658;23;20016;-88
2022/06/09 03:02:20;;;;;;;20.80;8.32;;;;;;;13.07;97.88;100255.69;6252566;23;20024;-88
2022/06/09 03:04:48;;;;;;;21.40;8.23;;;;;;;13.18;98.42;100274.47;6223474;23;20020;-87
2022/06/09 03:07:17;;;;;;;15.38;8.00;;;;;;;13.30;98.38;100290.59;6249460;23;20456;-87
2022/06/09 03:09:45;;;;;;;19.40;7.85;;;;;;;13.25;98.83;100285.06;6250505;23;20087;-87
2022/06/09 03:12:12;;;;;;;23.63;8.55;;;;;;;13.21;98.69;100281.19;6250564;23;20024;-87
2022/06/09 03:14:39;;;;;;;20.08;8.05;;;;;;;13.08;98.78;100280.97;6250324;22;20365;-87
2022/06/09 03:17:10;;;;;;;22.67;8.23;;;;;;;13.16;99.22;100291.44;6250249;23;20086;-87
2022/06/09 03:19:37;;;;;;;22.80;7.93;;;;;;;13.08;99.17;100280.97;6249893;23;20016;-88
2022/06/09 03:22:13;;;;;;;23.23;8.70;;;;;;;13.03;99.34;100276.25;6249337;23;20086;-87
2022/06/09 03:24:42;;;;;;;19.65;8.00;;;;;;;13.04;99.32;100271.81;6250348;22;20023;-88
2022/06/09 03:27:12;;;;;;;20.60;8.50;;;;;;;13.05;99.11;100286.56;6249471;23;20016;-88
2022/06/09 03:29:39;;;;;;;20.40;8.13;;;;;;;13.03;99.25;100288.56;6248915;23;20279;-88
2022/06/09 03:32:09;;;;;;;22.73;8.90;;;;;;;13.07;99.19;100292.47;6248494;23;20024;-88
2022/06/09 03:34:36;;;;;;;19.75;9.30;;;;;;;13.23;98.83;100323.88;6248397;22;20020;-88
2022/06/09 03:37:04;;;;;;;24.95;8.73;;;;;;;13.02;98.96;100290.38;6250445;23;20417;-88
2022/06/09 03:39:34;;;;;;;20.63;8.43;;;;;;;13.04;99.28;100311.22;6250558;23;20046;-88
2022/06/09 03:42:05;;;;;;;23.00;8.32;;;;;;;13.01;99.29;100298.44;6251282;23;20157;-88
2022/06/09 03:44:32;;;;;;;17.23;8.70;;;;;;;12.99;99.39;100300.44;6251808;22;20348;-88
2022/06/09 03:46:59;;;;;;;18.60;8.40;;;;;;;13.00;99.66;100323.06;6251119;23;20027;-88
2022/06/09 03:49:27;;;;;;;19.40;8.63;;;;;;;13.03;99.61;100317.47;6251605;23;20016;-88
2022/06/09 03:56:03;;;;;;;20.88;8.57;;;;;;;13.21;98.40;100320.59;6246981;22;20050;-88
2022/06/09 03:59:24;;;;;;;25.20;9.00;;;;;;;13.43;97.74;100337.25;6251309;23;20027;-88
2022/06/09 04:01:54;;;;;;;27.23;8.15;;;;;;;13.60;97.28;100357.94;6251620;23;20036;-88
2022/06/09 04:04:21;;;;;;;24.00;9.27;;;;;;;13.49;96.71;100342.59;6251719;22;20064;-88
2022/06/09 04:06:52;;;;;;;20.45;9.00;;;;;;;13.52;96.75;100344.88;6250196;23;20453;-88
2022/06/09 04:12:36;;;;;;;21.25;9.13;;;;;;;13.72;96.24;100376.66;6244096;23;20028;-88
2022/06/09 04:15:03;;;;;;;22.77;8.43;;;;;;;13.51;96.09;100353.75;6251385;22;20100;-88
2022/06/09 04:17:35;;;;;;;21.05;9.50;;;;;;;13.59;96.46;100366.81;6252261;23;20020;-89
2022/06/09 04:20:02;;;;;;;18.70;8.55;;;;;;;13.63;96.28;100376.97;6251004;23;20044;-88
2022/06/09 04:22:30;;;;;;;19.23;8.85;;;;;;;13.56;96.22;100361.91;6250961;23;20386;-88
2022/06/09 04:24:57;;;;;;;20.95;9.73;;;;;;;13.52;96.43;100365.91;6250146;22;20016;-88
2022/06/09 04:27:24;;;;;;;20.05;8.88;;;;;;;13.60;96.36;100373.72;6250494;23;20095;-89
2022/06/09 04:29:58;;;;;;;19.30;8.77;;;;;;;13.56;96.47;100372.44;6251395;23;20023;-88
2022/06/09 04:32:26;;;;;;;17.77;9.48;;;;;;;13.69;96.65;100392.03;6249981;23;20016;-88
2022/06/09 04:34:54;;;;;;;27.38;8.90;;;;;;;13.57;96.39;100371.44;6250282;22;20484;-88
2022/06/09 04:37:59;;;;;;;24.42;8.77;;;;;;;13.54;96.51;100384.94;6251138;23;20023;-87
2022/06/09 04:40:10;;;;;;;23.95;9.70;;;;;;;13.83;96.09;100394.63;6252059;23;20487;-88
2022/06/09 04:42:37;;;;;;;27.10;10.07;;;;;;;13.70;95.98;100380.50;6254937;23;20059;-87
2022/06/09 04:45:05;;;;;;;22.85;9.50;;;;;;;13.84;96.23;100404.16;6252315;22;20020;-87
2022/06/09 04:47:33;;;;;;;21.65;9.57;;;;;;;13.94;95.13;100395.97;6252525;22;20082;-88
2022/06/09 04:50:01;;;;;;;22.95;9.60;;;;;;;13.90;94.62;100379.75;6251627;23;20016;-88
2022/06/09 04:52:28;;;;;;;22.85;8.82;;;;;;;14.00;94.14;100384.72;6251637;23;20020;-88
2022/06/09 04:54:55;;;;;;;25.15;9.52;;;;;;;14.20;94.20;100406.81;6250329;22;20087;-88
2022/06/09 04:57:23;;;;;;;18.33;9.20;;;;;;;14.28;93.71;100413.78;6251054;23;20368;-88
2022/06/09 05:03:28;;;;;;;18.73;9.40;;;;;;;14.33;93.83;100418.50;6216426;22;20087;-88
2022/06/09 05:06:28;;;;;;;18.83;8.63;;;;;;;14.24;93.54;100394.91;6252033;23;20099;-87
2022/06/09 05:09:17;;;;;;;16.60;9.20;;;;;;;14.21;93.69;100413.69;6250346;23;20020;-88
2022/06/09 05:11:58;;;;;;;28.77;10.05;;;;;;;14.36;92.88;100400.50;6251328;23;20024;-88
2022/06/09 05:14:25;;;;;;;24.92;9.75;;;;;;;14.51;92.60;100421.56;6250917;22;20019;-88
2022/06/09 05:16:57;;;;;;;23.98;9.25;;;;;;;14.51;92.43;100429.47;6252601;23;20407;-88
2022/06/09 05:19:45;;;;;;;21.52;9.02;;;;;;;14.51;91.78;100414.47;6251392;23;20195;-87
2022/06/09 05:25:38;;;;;;;25.20;10.60;;;;;;;14.62;91.39;100431.63;6249402;23;20016;-88
2022/06/09 05:28:06;;;;;;;26.85;10.50;;;;;;;14.64;91.15;100418.25;6253071;23;20074;-88
2022/06/09 05:36:31;;;;;;;22.88;8.95;;;;;;;15.14;88.01;100425.97;6252922;23;20032;-81
2022/06/09 05:47:11;;;;;;;22.35;8.57;;;;;;;16.18;83.44;100442.69;6220742;22;20027;-84
2022/06/09 05:49:38;;;;;;;21.48;8.57;;;;;;;16.18;83.66;100455.06;6221025;23;20020;-83
2022/06/09 05:52:05;;;;;;;19.45;8.57;;;;;;;16.29;84.15;100461.59;6223771;23;20074;-83
2022/06/09 05:54:33;;;;;;;26.17;9.48;;;;;;;16.30;83.32;100479.09;6224813;23;20021;-84
2022/06/09 05:57:00;;;;;;;20.38;8.63;;;;;;;15.97;85.00;100490.31;6235136;23;20024;-84
2022/06/09 05:59:38;;;;;;;19.48;9.73;;;;;;;15.88;84.85;100488.81;6223655;23;20029;-84
2022/06/09 06:02:06;;;;;;;19.42;9.30;;;;;;;15.75;85.34;100491.38;6226288;23;20021;-84
2022/06/09 06:04:33;;;;;;;22.20;9.98;;;;;;;15.92;84.97;100492.72;6229950;23;20044;-83
2022/06/09 06:07:00;;;;;;;25.38;10.45;;;;;;;16.00;83.82;100499.66;6228914;23;20082;-82
2022/06/09 06:09:26;;;;;;;21.63;10.23;;;;;;;15.71;84.98;100503.31;6230127;23;20052;-83
2022/06/09 06:11:55;;;;;;;19.92;9.85;;;;;;;15.57;86.09;100505.88;6230468;23;20043;-83
2022/06/09 06:14:23;;;;;;;20.23;9.80;;;;;;;15.51;87.14;100511.06;6225943;23;20044;-83
2022/06/09 06:16:50;;;;;;;21.77;11.35;;;;;;;15.58;85.75;100504.88;6223072;23;20025;-83
2022/06/09 06:19:19;;;;;;;28.60;11.93;;;;;;;15.76;85.49;100512.28;6222576;23;20067;-84
2022/06/09 06:21:47;;;;;;;17.58;9.70;;;;;;;15.73;85.62;100519.75;6223434;23;20009;-83
2022/06/09 06:24:14;;;;;;;21.77;10.77;;;;;;;15.83;85.52;100509.69;6223361;23;20021;-84
2022/06/09 06:26:42;;;;;;;19.13;9.50;;;;;;;15.74;84.41;100516.94;6222906;23;20078;-81
2022/06/09 06:29:15;;;;;;;21.95;11.10;;;;;;;15.65;85.56;100522.53;6223404;23;20032;-83
2022/06/09 06:31:42;;;;;;;20.90;10.25;;;;;;;15.59;86.05;100529.41;6223309;23;20028;-83
2022/06/09 06:34:08;;;;;;;31.70;11.20;;;;;;;15.52;85.96;100526.69;6222042;23;20021;-83
2022/06/09 06:36:35;;;;;;;26.52;11.35;;;;;;;15.46;86.17;100532.72;6221244;23;20035;-83
2022/06/09 06:39:02;;;;;;;33.30;12.07;;;;;;;15.48;86.61;100538.63;6221082;23;20326;-84
2022/06/09 06:41:30;;;;;;;23.63;11.05;;;;;;;15.31;86.77;100531.97;6220540;23;20115;-83
2022/06/09 06:43:57;;;;;;;30.15;12.63;;;;;;;15.43;87.19;100546.28;6221681;23;20048;-84
2022/06/09 06:46:26;;;;;;;36.15;13.57;;;;;;;15.54;87.87;100545.78;6221777;23;20056;-83
2022/06/09 06:48:55;;;;;;;44.10;15.10;;;;;;;15.59;86.52;100551.34;6221585;23;20048;-83
2022/06/09 06:51:22;;;;;;;26.63;11.35;;;;;;;15.45;86.97;100549.56;6221351;23;20024;-83
2022/06/09 06:53:49;;;;;;;22.90;10.82;;;;;;;15.35;87.55;100559.59;6222771;23;20048;-83
2022/06/09 06:56:15;;;;;;;19.02;10.45;;;;;;;15.39;87.37;100550.31;6222261;23;20457;-83
2022/06/09 06:58:42;;;;;;;25.48;11.15;;;;;;;15.46;87.23;100559.09;6222168;23;20020;-84
2022/06/09 07:01:09;;;;;;;24.13;11.80;;;;;;;15.50;86.79;100568.25;6224992;23;20027;-84
2022/06/09 07:03:37;;;;;;;23.90;10.60;;;;;;;15.43;87.29;100570.03;6225342;23;20025;-83
2022/06/09 07:06:05;;;;;;;31.45;11.85;;;;;;;15.42;87.33;100565.75;6225434;23;20020;-82
2022/06/09 07:08:32;;;;;;;19.75;10.82;;;;;;;15.45;87.17;100578.56;6225948;23;20024;-83
2022/06/09 07:10:59;;;;;;;15.85;10.80;;;;;;;15.52;87.06;100581.25;6224790;23;20023;-83
2022/06/09 07:13:26;;;;;;;19.92;10.45;;;;;;;15.54;86.02;100585.34;6224801;23;20048;-82
2022/06/09 07:15:53;;;;;;;26.02;11.57;;;;;;;15.55;85.83;100591.44;6224957;23;20020;-82
2022/06/09 07:18:19;;;;;;;25.80;11.88;;;;;;;15.58;85.62;100591.91;6224562;23;20043;-83
2022/06/09 07:20:48;;;;;;;22.83;11.02;;;;;;;15.72;84.81;100602.56;6229381;23;20120;-81
2022/06/09 07:23:14;;;;;;;21.65;10.98;;;;;;;15.77;84.58;100605.44;6223483;23;20024;-83
2022/06/09 07:25:41;;;;;;;32.47;11.68;;;;;;;16.07;84.55;100604.25;6223376;23;20024;-83
2022/06/09 07:28:08;;;;;;;26.88;11.43;;;;;;;16.27;84.17;100610.47;6223194;23;20028;-82
2022/06/09 07:30:35;;;;;;;27.42;11.68;;;;;;;15.97;82.64;100610.88;6224132;23;20845;-81
2022/06/09 07:33:02;;;;;;;27.48;11.40;;;;;;;16.00;83.57;100611.31;6222157;23;20032;-82
2022/06/09 07:35:31;;;;;;;18.40;11.27;;;;;;;15.95;82.99;100611.06;6222718;23;20362;-80
2022/06/09 07:37:59;;;;;;;22.15;11.35;;;;;;;15.87;83.54;100616.47;6222236;23;20024;-81
2022/06/09 07:40:26;;;;;;;25.50;11.75;;;;;;;15.94;83.82;100617.34;6221882;23;20025;-80
2022/06/09 07:42:52;;;;;;;21.20;10.95;;;;;;;15.92;83.70;100620.19;6221138;23;20104;-80
2022/06/09 07:45:19;;;;;;;18.05;11.80;;;;;;;15.86;83.73;100628.03;6220720;23;20027;-80
2022/06/09 07:47:46;;;;;;;18.45;11.82;;;;;;;15.81;83.70;100633.88;6221760;23;20035;-80
2022/06/09 07:50:15;;;;;;;21.85;12.02;;;;;;;15.71;82.71;100637.84;6223073;23;20401;-80
2022/06/09 07:52:41;;;;;;;21.90;12.50;;;;;;;15.75;84.21;100639.09;6221099;23;20029;-80
2022/06/09 07:55:10;;;;;;;26.25;13.00;;;;;;;15.80;83.37;100636.72;6221324;23;20031;-81
2022/06/09 07:57:36;;;;;;;20.85;12.52;;;;;;;15.89;83.70;100640.88;6222358;23;20051;-81
2022/06/09 08:00:05;;;;;;;21.85;12.85;;;;;;;15.92;84.13;100643.13;6223596;23;20349;-83
2022/06/09 08:02:32;;;;;;;21.00;12.13;;;;;;;15.80;84.27;100647.28;6220973;23;20044;-80
2022/06/09 08:04:58;;;;;;;24.40;12.25;;;;;;;15.89;84.35;100644.31;6221464;23;20110;-81
2022/06/09 08:07:25;;;;;;;21.58;12.85;;;;;;;15.89;84.64;100646.94;6222635;23;20025;-81
2022/06/09 08:09:52;;;;;;;22.13;12.52;;;;;;;16.12;83.80;100661.75;6223195;23;20024;-80
2022/06/09 08:12:20;;;;;;;25.95;12.52;;;;;;;16.23;83.30;100655.94;6224156;23;20029;-80
2022/06/09 08:14:46;;;;;;;27.75;12.45;;;;;;;16.31;82.99;100660.25;6223482;23;20031;-78
2022/06/09 08:17:13;;;;;;;22.13;12.52;;;;;;;16.19;82.72;100665.25;6222822;23;20025;-79
2022/06/09 08:19:40;;;;;;;25.33;12.00;;;;;;;16.02;82.98;100679.75;6222352;23;20341;-79
2022/06/09 08:22:08;;;;;;;23.65;12.98;;;;;;;16.03;83.14;100681.38;6221662;23;20378;-80
2022/06/09 08:24:36;;;;;;;25.60;11.32;;;;;;;16.19;82.65;100673.97;6218440;23;20644;-79
2022/06/09 08:27:03;;;;;;;24.77;11.40;;;;;;;16.43;82.12;100674.56;6220666;23;20021;-79
2022/06/09 08:29:31;;;;;;;21.55;10.90;;;;;;;16.59;80.71;100674.25;6219876;23;20025;-79
2022/06/09 08:31:58;;;;;;;20.90;10.80;;;;;;;16.97;79.62;100677.34;6218905;23;20029;-78
2022/06/09 08:34:26;;;;;;;20.65;10.95;;;;;;;17.03;78.90;100689.75;6221732;23;20024;-79
2022/06/09 08:36:53;;;;;;;23.08;11.25;;;;;;;17.37;76.75;100688.06;6223549;23;20028;-79
2022/06/09 08:39:20;;;;;;;22.10;11.07;;;;;;;17.57;76.93;100694.22;6224593;23;20036;-79
2022/06/09 08:41:59;;;;;;;20.30;11.10;;;;;;;17.58;77.13;100701.94;6224980;23;20024;-81
2022/06/09 08:44:36;;;;;;;22.85;11.57;;;;;;;17.30;77.79;100693.34;6222207;23;20032;-80
2022/06/09 08:47:12;;;;;;;21.05;10.60;;;;;;;17.54;76.63;100705.19;6220364;23;20044;-79
2022/06/09 08:49:56;;;;;;;18.75;10.60;;;;;;;17.65;76.75;100707.28;6219143;23;20031;-79
2022/06/09 08:52:36;;;;;;;15.30;10.20;;;;;;;17.72;75.65;100708.13;6228614;23;20076;-80
2022/06/09 08:55:15;;;;;;;20.63;11.07;;;;;;;17.49;76.16;100708.44;6227381;23;20035;-79
2022/06/09 08:57:44;;;;;;;16.13;11.20;;;;;;;17.05;78.64;100716.81;6227181;23;20473;-79
2022/06/09 09:00:16;;;;;;;14.88;9.35;;;;;;;16.80;79.19;100719.13;6225369;23;20035;-79
2022/06/09 09:02:49;;;;;;;19.67;10.60;;;;;;;16.84;79.93;100720.38;6224372;23;20025;-79
2022/06/09 09:05:20;;;;;;;19.40;9.60;;;;;;;17.18;78.25;100713.41;6226548;23;20082;-79
2022/06/09 09:07:51;;;;;;;19.05;9.23;;;;;;;17.21;77.43;100721.78;6224763;23;20024;-79
2022/06/09 09:10:22;;;;;;;21.00;9.80;;;;;;;17.76;76.44;100719.13;6226040;23;20061;-80
2022/06/09 09:13:01;;;;;;;17.20;9.00;;;;;;;18.04;74.60;100722.41;6227007;23;20055;-80
2022/06/09 09:15:34;;;;;;;17.65;9.00;;;;;;;17.83;75.54;100723.44;6227531;23;20025;-81
2022/06/09 09:18:15;;;;;;;16.17;8.63;;;;;;;17.82;74.83;100723.63;6224558;23;20036;-81
2022/06/09 09:20:51;;;;;;;13.80;8.57;;;;;;;17.99;75.30;100724.03;6226885;23;20048;-81
2022/06/09 09:23:21;;;;;;;16.63;8.68;;;;;;;18.63;72.08;100718.97;6230452;23;20051;-80
2022/06/09 09:25:56;;;;;;;15.50;7.72;;;;;;;19.00;70.34;100721.94;6229730;23;20020;-82
2022/06/09 09:28:27;;;;;;;13.02;7.20;;;;;;;18.42;71.62;100724.47;6229657;23;20036;-80
2022/06/09 09:31:02;;;;;;;18.55;7.65;;;;;;;18.39;71.53;100735.47;6229219;23;20072;-79
2022/06/09 09:33:30;;;;;;;14.35;6.93;;;;;;;18.98;70.69;100732.75;6221321;23;20028;-80
2022/06/09 09:36:01;;;;;;;19.65;7.22;;;;;;;19.42;70.80;100736.44;6227240;23;20028;-79
2022/06/09 09:38:36;;;;;;;18.58;7.60;;;;;;;19.00;69.46;100725.41;6225800;23;20024;-80
2022/06/09 09:41:03;;;;;;;17.90;8.27;;;;;;;18.39;72.12;100735.47;6231235;23;20031;-80
2022/06/09 09:43:37;;;;;;;20.23;7.95;;;;;;;18.33;72.03;100729.16;6223728;23;20029;-80
2022/06/09 09:46:18;;;;;;;16.92;7.65;;;;;;;18.69;72.19;100726.09;6229325;23;20028;-80
2022/06/09 09:48:46;;;;;;;18.40;7.97;;;;;;;19.80;67.98;100731.19;6229575;23;20516;-79
2022/06/09 09:51:13;;;;;;;15.57;8.02;;;;;;;20.58;65.37;100731.63;6231481;23;20025;-81
2022/06/09 09:53:51;;;;;;;10.75;7.30;;;;;;;20.08;64.73;100736.09;6230717;23;20040;-80
2022/06/09 09:56:31;;;;;;;12.68;6.65;;;;;;;20.01;65.55;100741.44;6230906;23;20028;-81
2022/06/09 09:59:00;;;;;;;16.42;7.25;;;;;;;19.17;68.49;100741.66;6230951;23;20032;-81
2022/06/09 10:01:34;;;;;;;18.42;7.45;;;;;;;19.28;69.25;100751.63;6231943;23;20031;-82
2022/06/09 10:09:39;;;;;;;15.68;6.43;;;;;;;20.81;62.30;100752.25;6231287;23;20067;-83
2022/06/09 10:12:10;;;;;;;10.82;6.75;;;;;;;20.05;63.42;100758.59;6232065;23;20051;-82
2022/06/09 10:14:52;;;;;;;13.90;6.80;;;;;;;19.84;64.74;100754.44;6231006;23;20052;-80
2022/06/09 10:17:29;;;;;;;27.50;8.77;;;;;;;19.14;68.01;100753.50;6225680;23;20032;-80
2022/06/09 10:20:04;;;;;;;13.43;8.57;;;;;;;18.70;70.85;100754.22;6231827;23;20059;-82
2022/06/09 10:22:35;;;;;;;11.13;8.02;;;;;;;18.45;72.10;100754.00;6230845;23;20059;-80
2022/06/09 10:25:14;;;;;;;14.68;7.85;;;;;;;18.59;70.77;100754.81;6230275;23;20032;-80
2022/06/09 10:27:44;;;;;;;10.40;7.50;;;;;;;19.30;68.44;100759.38;6230431;23;20048;-81
2022/06/09 10:30:17;;;;;;;13.88;7.43;;;;;;;19.77;66.79;100761.63;6232329;23;20024;-81
2022/06/09 10:32:51;;;;;;;18.55;6.70;;;;;;;19.90;65.58;100771.34;6225938;23;20048;-80
2022/06/09 10:35:27;;;;;;;16.23;5.90;;;;;;;19.64;65.87;100772.31;6223103;23;20024;-78
2022/06/09 10:38:01;;;;;;;11.75;5.72;;;;;;;19.50;64.98;100786.63;6222897;23;20021;-80
2022/06/09 10:40:35;;;;;;;12.20;5.43;;;;;;;19.35;65.14;100789.56;6224611;23;20086;-80
2022/06/09 10:43:07;;;;;;;12.15;5.78;;;;;;;19.86;64.85;100786.88;6224552;23;20020;-80
2022/06/09 10:45:42;;;;;;;10.45;5.85;;;;;;;20.40;63.10;100782.06;6222677;23;20024;-80
2022/06/09 10:56:53;;;;;;;7.63;4.20;;;;;;;20.28;61.03;100789.09;6222612;23;20075;-80
2022/06/09 10:59:27;;;;;;;10.35;4.60;;;;;;;20.70;61.69;100788.38;6224873;23;20071;-79
2022/06/09 11:01:54;;;;;;;13.07;4.80;;;;;;;21.10;60.92;100785.31;6227870;23;20104;-80
2022/06/09 11:04:24;;;;;;;12.10;5.95;;;;;;;21.44;61.19;100782.06;6225406;23;20064;-79
2022/06/09 11:07:16;;;;;;;22.23;5.13;;;;;;;21.48;59.11;100777.91;6226696;23;20071;-81
2022/06/09 11:09:56;;;;;;;9.53;5.00;;;;;;;21.82;60.54;100788.94;6228584;23;20024;-81
2022/06/09 11:12:34;;;;;;;9.90;4.88;;;;;;;21.66;58.08;100795.72;6229425;23;20044;-81
2022/06/09 11:15:15;;;;;;;9.55;4.90;;;;;;;21.22;60.46;100794.22;6227530;23;20099;-81
2022/06/09 11:18:11;;;;;;;11.43;4.72;;;;;;;21.13;60.40;100795.50;6227469;23;20020;-82
2022/06/09 11:20:54;;;;;;;10.98;5.07;;;;;;;21.32;59.51;100806.97;6230649;23;20025;-81
2022/06/09 11:23:34;;;;;;;13.90;5.68;;;;;;;21.16;58.96;100813.69;6228553;23;20028;-81
2022/06/09 11:26:11;;;;;;;11.30;5.45;;;;;;;21.39;60.33;100808.53;6227532;23;20028;-82
2022/06/09 11:28:52;;;;;;;14.32;5.57;;;;;;;21.71;60.40;100805.69;6226714;23;20024;-82
2022/06/09 11:31:40;;;;;;;16.20;5.10;;;;;;;20.88;59.17;100807.00;6227478;23;20020;-80
2022/06/09 11:34:51;;;;;;;9.00;5.32;;;;;;;21.14;57.24;100813.91;6227137;23;20035;-81
2022/06/09 11:37:35;;;;;;;13.52;5.43;;;;;;;21.37;56.59;100818.59;6142218;23;20021;-81
2022/06/09 11:40:12;;;;;;;14.85;5.97;;;;;;;21.70;58.97;100802.22;6223395;23;20025;-80
2022/06/09 11:43:01;;;;;;;11.75;5.65;;;;;;;22.07;56.69;100816.28;6221382;23;20031;-78
2022/06/09 11:45:31;;;;;;;10.25;5.40;;;;;;;22.32;57.80;100812.63;6219763;23;20036;-79
2022/06/09 11:48:01;;;;;;;10.60;5.07;;;;;;;21.96;56.77;100817.03;6213861;23;20041;-87
2022/06/09 11:50:34;;;;;;;10.88;4.90;;;;;;;21.46;56.29;100814.59;6222046;23;20658;-85
2022/06/09 11:53:03;;;;;;;12.10;5.38;;;;;;;21.42;59.18;100820.59;6222388;23;20033;-84
2022/06/09 11:58:46;;;;;;;10.82;5.47;;;;;;;20.36;59.90;100824.16;6225178;23;20051;-83
2022/06/09 12:01:47;;;;;;;8.15;5.50;;;;;;;20.56;60.89;100832.03;6226218;23;20106;-85
2022/06/09 12:04:49;;;;;;;13.43;6.40;;;;;;;20.39;60.69;100830.94;6225132;23;20021;-84
2022/06/09 12:08:02;;;;;;;12.15;6.05;;;;;;;20.70;59.40;100836.22;6218687;23;20143;-84
2022/06/09 12:10:46;;;;;;;10.73;5.47;;;;;;;20.88;59.18;100841.56;6147426;23;20028;-83
2022/06/09 12:13:19;;;;;;;10.35;5.22;;;;;;;21.45;56.46;100830.78;6222683;23;20035;-80
2022/06/09 12:15:58;;;;;;;11.57;5.68;;;;;;;21.00;57.31;100840.88;6221754;23;20035;-83
2022/06/09 12:18:38;;;;;;;11.23;5.05;;;;;;;20.82;57.03;100839.78;6221965;23;20091;-82
2022/06/09 12:21:12;;;;;;;14.23;5.22;;;;;;;20.68;57.55;100837.47;6222574;23;20067;-81
2022/06/09 12:23:41;;;;;;;9.52;4.95;;;;;;;20.93;57.70;100850.75;6222264;23;20031;-82
2022/06/09 12:26:30;;;;;;;10.68;4.75;;;;;;;20.77;58.55;100858.25;6223038;23;20104;-81